首页
METAR-TAF:

METAR-TAF

机场 :

馬拉博機場

馬拉博, 赤道几内亚

纬度: 03-45-18N, 经度: 08-42-31E, 海拔: 23米

当前天气观测

该预报发布于1小时和16分钟前的19:00 UTC
风速4节,风向西转西南
温度 26°C
湿度 89%
气压 1012 hPa
能见度10公里或以上
少量云层高于1000英尺

METAR: FGSL 201900Z 24004KT 9999 FEW010 26/24 Q1012 NOSIG

时间: 21:16 (20:16 UTC)

预报

该预报发布于3小时和16分钟前的17:00 UTC
预报有效从20日的 18点(UTC)到 21日的 24点(UTC)
风速6节,风向西转西南
能见度10公里或以上
散云层高于1000英尺
短暂存在
从 20日的 21点(UTC)到 21日的 03点(UTC)
多云层高于1000英尺
少量云层高于2000英尺, 积雨云.
雷暴
成为
从 21日的 03点(UTC)到 21日的 05点(UTC)
多云层高于1000英尺
少量云层高于2000英尺, 积雨云.
短暂存在
从 21日的 12点(UTC)到 21日的 16点(UTC)
雷暴
成为
从 21日的 16点(UTC)到 21日的 18点(UTC)
散云层高于1000英尺

TAF: FGSL 201700Z 2018/2124 24006KT 9999 SCT010 TEMPO 2021/2103 TS BKN010 FEW020CB BECMG 2103/2105 BKN010 FEW020CB TEMPO 2112/2116 TS BECMG 2116/2118 SCT010

超过4000个机场的气象观测和天气预报(METAR&TAF报告)。

可查询的气象台以黄色和红色小点在地图上表示。

将鼠标移到小点上方,可查看气象台名称。

然后点击查看天气观测和预报。

如需切换地图:点击带黑十字的绿色按钮放大地图;点击带横线的绿色按钮缩小地图;或者点击绿色箭头查看邻近地区的地图。


METAR-TAF: